createdAt,value
2018-06-02T00:02:06.671Z,7.47
2018-06-02T00:04:34.243Z,8.13
2018-06-02T00:07:01.888Z,8.63
2018-06-02T00:09:29.912Z,8.53
2018-06-02T00:11:57.775Z,8.30
2018-06-02T00:14:25.847Z,9.03
2018-06-02T00:16:53.395Z,8.53
2018-06-02T00:19:20.932Z,8.73
2018-06-02T00:21:48.482Z,8.63
2018-06-02T00:24:16.151Z,9.33
2018-06-02T00:26:43.755Z,9.37
2018-06-02T00:29:12.543Z,9.00
2018-06-02T00:31:40.215Z,8.93
2018-06-02T00:34:07.847Z,8.83
2018-06-02T00:36:35.387Z,8.47
2018-06-02T00:39:02.935Z,8.70
2018-06-02T00:41:30.628Z,9.27
2018-06-02T00:43:59.021Z,8.23
2018-06-02T00:46:26.700Z,9.17
2018-06-02T00:48:54.407Z,8.93
2018-06-02T00:51:21.919Z,8.10
2018-06-02T00:53:49.480Z,8.20
2018-06-02T00:56:17.008Z,8.03
2018-06-02T00:58:44.705Z,8.17
2018-06-02T01:01:12.543Z,9.27
2018-06-02T01:03:40.234Z,7.60
2018-06-02T01:06:07.862Z,7.73
2018-06-02T01:08:38.506Z,6.90
2018-06-02T01:11:06.062Z,6.27
2018-06-02T01:13:34.638Z,5.57
2018-06-02T01:16:02.215Z,5.63
2018-06-02T01:18:31.330Z,5.47
2018-06-02T01:20:59.360Z,5.70
2018-06-02T01:23:27.992Z,5.73
2018-06-02T01:25:58.363Z,5.07
2018-06-02T01:28:25.923Z,5.77
2018-06-02T01:30:53.460Z,5.03
2018-06-02T01:33:26.968Z,5.40
2018-06-02T01:35:55.891Z,5.33
2018-06-02T01:43:30.239Z,4.80
2018-06-02T01:45:57.804Z,4.60
2018-06-02T01:51:07.667Z,4.90
2018-06-02T01:53:38.091Z,5.07
2018-06-02T01:56:07.903Z,5.13
2018-06-02T01:58:37.950Z,4.50
2018-06-02T02:01:05.497Z,4.80
2018-06-02T02:03:33.021Z,4.23
2018-06-02T02:06:00.615Z,4.13
2018-06-02T02:08:29.889Z,4.70
2018-06-02T02:11:02.027Z,4.03
2018-06-02T02:13:30.876Z,4.00
2018-06-02T02:15:59.815Z,4.23
2018-06-02T02:18:27.354Z,4.17
2018-06-02T02:20:54.931Z,4.30
2018-06-02T02:23:22.467Z,3.83
2018-06-02T02:25:51.521Z,4.37
2018-06-02T02:28:22.883Z,3.90
2018-06-02T02:30:53.974Z,4.20
2018-06-02T02:33:27.008Z,3.93
2018-06-02T02:35:54.687Z,3.83
2018-06-02T02:38:22.295Z,3.50
2018-06-02T02:40:49.947Z,3.50
2018-06-02T02:43:22.769Z,3.50
2018-06-02T02:45:51.842Z,3.77
2018-06-02T02:48:22.631Z,3.90
2018-06-02T02:50:52.938Z,3.80
2018-06-02T02:53:20.551Z,3.73
2018-06-02T02:55:48.058Z,4.10
2018-06-02T02:58:15.720Z,4.37
2018-06-02T03:00:46.766Z,4.13
2018-06-02T03:03:15.561Z,3.80
2018-06-02T03:05:46.218Z,3.60
2018-06-02T03:08:13.802Z,3.97
2018-06-02T03:10:41.361Z,4.63
2018-06-02T03:13:08.931Z,4.00
2018-06-02T03:15:36.539Z,4.13
2018-06-02T03:18:07.856Z,4.00
2018-06-02T03:20:35.575Z,4.33
2018-06-02T03:23:05.698Z,4.50
2018-06-02T03:25:33.297Z,4.40
2018-06-02T03:28:00.808Z,3.50
2018-06-02T03:30:28.549Z,3.17
2018-06-02T03:32:56.695Z,3.00
2018-06-02T03:35:31.628Z,3.00
2018-06-02T03:38:02.210Z,3.30
2018-06-02T03:43:05.593Z,2.90
2018-06-02T03:45:33.141Z,2.70
2018-06-02T03:48:00.738Z,3.20
2018-06-02T03:50:28.356Z,2.60
2018-06-02T03:53:02.678Z,2.87
2018-06-02T04:00:57.175Z,2.47
2018-06-02T04:03:24.727Z,2.60
2018-06-02T04:05:52.247Z,2.60
2018-06-02T04:08:19.846Z,3.07
2018-06-02T04:10:47.539Z,2.37
2018-06-02T04:13:16.071Z,2.40
2018-06-02T04:15:45.416Z,2.60
2018-06-02T04:18:13.027Z,2.50
2018-06-02T04:20:40.589Z,2.53
2018-06-02T04:23:08.174Z,2.80
2018-06-02T04:25:36.068Z,2.63
2018-06-02T04:28:03.640Z,2.87
2018-06-02T04:33:07.712Z,2.60
2018-06-02T04:35:35.271Z,3.00
2018-06-02T04:38:02.784Z,2.73
2018-06-02T04:40:30.308Z,2.60
2018-06-02T04:42:58.129Z,2.50
2018-06-02T04:48:03.261Z,2.27
2018-06-02T04:50:32.348Z,2.77
2018-06-02T04:53:00.583Z,2.63
2018-06-02T04:55:28.175Z,2.60
2018-06-02T04:57:55.723Z,2.70
2018-06-02T05:00:24.249Z,2.60
2018-06-02T05:02:51.879Z,2.60
2018-06-02T05:05:19.447Z,2.73
2018-06-02T05:07:50.915Z,2.70
2018-06-02T05:10:18.430Z,2.63
2018-06-02T05:12:46.040Z,2.87
2018-06-02T05:15:13.676Z,2.60
2018-06-02T05:17:41.875Z,2.70
2018-06-02T05:20:12.052Z,2.50
2018-06-02T05:22:42.062Z,2.60
2018-06-02T05:25:12.110Z,2.67
2018-06-02T05:27:40.690Z,2.80
2018-06-02T05:30:08.355Z,3.10
2018-06-02T05:32:35.892Z,2.37
2018-06-02T05:35:03.536Z,2.83
2018-06-02T05:37:31.640Z,2.90
2018-06-02T05:40:01.900Z,3.00
2018-06-02T05:42:31.201Z,3.10
2018-06-02T05:44:58.747Z,2.93
2018-06-02T05:47:26.269Z,3.00
2018-06-02T05:49:53.842Z,3.23
2018-06-02T05:54:59.521Z,3.70
2018-06-02T05:57:28.123Z,3.27
2018-06-02T06:00:01.759Z,3.50
2018-06-02T06:02:31.208Z,3.80
2018-06-02T06:04:58.808Z,3.87
2018-06-02T06:07:26.423Z,3.30
2018-06-02T06:09:59.110Z,3.63
2018-06-02T06:12:28.321Z,4.10
2018-06-02T06:14:58.953Z,3.90
2018-06-02T06:17:28.201Z,4.00
2018-06-02T06:19:57.042Z,3.43
2018-06-02T06:22:26.490Z,3.90
2018-06-02T06:24:54.318Z,4.07
2018-06-02T06:27:24.637Z,4.27
2018-06-02T06:29:58.885Z,4.00
2018-06-02T06:32:27.587Z,3.83
2018-06-02T06:34:55.927Z,4.20
2018-06-02T06:37:23.613Z,4.33
2018-06-02T06:39:51.273Z,4.33
2018-06-02T06:42:18.799Z,4.40
2018-06-02T06:44:50.599Z,4.33
2018-06-02T06:47:20.539Z,4.10
2018-06-02T06:49:50.503Z,4.50
2018-06-02T06:52:22.929Z,4.30
2018-06-02T06:54:50.491Z,4.20
2018-06-02T06:57:18.126Z,4.50
2018-06-02T06:59:45.802Z,4.00
2018-06-02T07:04:50.908Z,3.50
2018-06-02T07:07:22.206Z,3.80
2018-06-02T07:09:54.515Z,3.80
2018-06-02T07:12:22.122Z,6.43
2018-06-02T07:14:49.772Z,3.20
2018-06-02T07:17:17.529Z,3.07
2018-06-02T07:22:43.479Z,2.97
2018-06-02T07:30:46.831Z,2.97
2018-06-02T07:33:33.580Z,3.23
2018-06-02T07:50:31.532Z,3.37
2018-06-02T07:52:59.128Z,3.90
2018-06-02T07:55:32.079Z,3.70
2018-06-02T07:58:06.929Z,3.90
2018-06-02T08:01:02.021Z,3.67
2018-06-02T08:03:41.687Z,3.90
2018-06-02T08:06:09.230Z,3.87
2018-06-02T08:08:36.907Z,4.03
2018-06-02T08:13:39.123Z,3.80
2018-06-02T08:16:10.929Z,4.00
2018-06-02T08:18:46.782Z,3.83
2018-06-02T08:21:14.407Z,3.80
2018-06-02T08:23:43.599Z,3.97
2018-06-02T08:26:11.307Z,3.80
2018-06-02T08:36:41.861Z,4.00
2018-06-02T08:39:09.395Z,3.40
2018-06-02T08:41:37.011Z,4.10
2018-06-02T08:44:04.805Z,4.30
2018-06-02T08:55:40.695Z,3.80
2018-06-02T08:58:08.326Z,4.37
2018-06-02T09:00:35.987Z,4.53
2018-06-02T09:11:25.061Z,3.87
2018-06-02T09:13:53.619Z,4.10
2018-06-02T09:16:21.171Z,4.00
2018-06-02T09:27:32.000Z,3.87
2018-06-02T09:29:59.840Z,4.40
2018-06-02T09:32:27.667Z,4.43
2018-06-02T09:34:55.183Z,4.20
2018-06-02T09:46:31.611Z,3.83
2018-06-02T09:48:59.213Z,4.33
2018-06-02T09:51:26.889Z,3.90
2018-06-02T10:03:03.283Z,3.70
2018-06-02T10:05:30.862Z,3.97
2018-06-02T10:07:58.485Z,3.83
2018-06-02T10:19:34.609Z,3.73
2018-06-02T10:22:02.321Z,3.60
2018-06-02T10:24:29.867Z,3.57
2018-06-02T10:26:58.822Z,3.80
2018-06-02T10:38:35.505Z,4.13
2018-06-02T10:41:03.258Z,3.90
2018-06-02T10:43:30.939Z,4.10
2018-06-02T10:55:07.243Z,4.00
2018-06-02T10:57:34.999Z,3.47
2018-06-02T11:00:02.567Z,3.87
2018-06-02T11:11:38.657Z,3.03
2018-06-02T11:14:06.378Z,3.13
2018-06-02T11:16:33.904Z,3.10
2018-06-02T11:28:10.504Z,2.87
2018-06-02T11:30:38.146Z,3.03
2018-06-02T11:33:05.700Z,2.93
2018-06-02T11:44:41.602Z,2.80
2018-06-02T11:47:09.182Z,3.13
2018-06-02T11:49:36.738Z,3.10
2018-06-02T11:52:04.360Z,2.60
2018-06-02T12:03:39.995Z,2.87
2018-06-02T12:06:07.574Z,2.80
2018-06-02T12:08:35.315Z,2.70
2018-06-02T12:20:12.621Z,2.77
2018-06-02T12:22:40.279Z,2.57
2018-06-02T12:25:08.103Z,2.70
2018-06-02T12:36:45.140Z,2.23
2018-06-02T12:39:12.841Z,1.90
2018-06-02T12:41:40.420Z,2.10
2018-06-02T12:53:16.407Z,3.00
2018-06-02T12:55:43.983Z,3.20
2018-06-02T12:58:11.534Z,2.60
2018-06-02T13:09:51.877Z,2.70
2018-06-02T13:12:19.526Z,2.63
2018-06-02T13:14:47.319Z,3.00
2018-06-02T13:17:14.900Z,2.47
2018-06-02T13:28:51.095Z,1.93
2018-06-02T13:31:18.791Z,2.23
2018-06-02T13:33:46.407Z,1.97
2018-06-02T13:45:22.844Z,1.50
2018-06-02T13:47:50.359Z,1.57
2018-06-02T13:50:18.041Z,1.53
2018-06-02T14:01:53.887Z,1.60
2018-06-02T14:04:21.447Z,1.80
2018-06-02T14:06:49.000Z,1.90
2018-06-02T14:18:24.894Z,1.53
2018-06-02T14:20:52.561Z,1.27
2018-06-02T14:23:20.225Z,1.60
2018-06-02T14:37:32.076Z,1.70
2018-06-02T14:39:59.670Z,1.33
2018-06-02T14:42:27.326Z,1.93
2018-06-02T14:54:03.292Z,2.13
2018-06-02T14:56:30.967Z,2.00
2018-06-02T14:58:58.817Z,1.77
2018-06-02T15:10:34.869Z,1.40
2018-06-02T15:13:02.481Z,1.60
2018-06-02T15:15:30.131Z,1.80
2018-06-02T15:27:06.517Z,1.73
2018-06-02T15:29:34.121Z,1.80
2018-06-02T15:32:01.771Z,1.60
2018-06-02T15:37:34.282Z,1.77
2018-06-02T15:40:06.148Z,2.10
2018-06-02T15:42:36.324Z,1.60
2018-06-02T15:45:03.878Z,1.70
2018-06-02T15:47:31.432Z,1.40
2018-06-02T15:49:58.975Z,1.50
2018-06-02T15:55:03.113Z,1.47
2018-06-02T15:57:39.154Z,1.40
2018-06-02T16:00:10.574Z,1.20
2018-06-02T16:02:40.138Z,1.30
2018-06-02T16:05:09.339Z,1.43
2018-06-02T16:07:38.369Z,1.10
2018-06-02T16:10:12.054Z,1.30
2018-06-02T16:12:44.267Z,1.27
2018-06-02T16:15:12.529Z,1.40
2018-06-02T16:17:42.824Z,1.40
2018-06-02T16:20:10.524Z,1.37
2018-06-02T16:22:38.085Z,1.40
2018-06-02T16:25:06.298Z,1.60
2018-06-02T16:27:36.401Z,1.60
2018-06-02T16:30:07.246Z,1.80
2018-06-02T16:32:42.889Z,1.60
2018-06-02T16:35:10.480Z,1.60
2018-06-02T16:37:38.143Z,1.63
2018-06-02T16:40:05.852Z,1.60
2018-06-02T16:42:33.483Z,2.23
2018-06-02T16:45:03.280Z,4.37
2018-06-02T16:47:34.058Z,2.77
2018-06-02T16:50:05.303Z,2.47
2018-06-02T16:52:32.915Z,2.60
2018-06-02T16:55:00.465Z,2.90
2018-06-02T16:57:28.698Z,2.93
2018-06-02T16:59:56.307Z,3.47
2018-06-02T17:02:24.271Z,2.80
2018-06-02T17:04:51.892Z,3.50
2018-06-02T17:07:20.066Z,2.60
2018-06-02T17:09:47.647Z,2.70
2018-06-02T17:12:15.237Z,2.63
2018-06-02T17:14:42.738Z,3.73
2018-06-02T17:17:10.466Z,7.77
2018-06-02T17:19:39.039Z,2.40
2018-06-02T17:22:11.623Z,5.37
2018-06-02T17:24:43.333Z,2.80
2018-06-02T17:27:10.904Z,2.67
2018-06-02T17:29:38.495Z,2.57
2018-06-02T17:32:06.013Z,2.60
2018-06-02T17:34:33.579Z,2.40
2018-06-02T17:37:04.533Z,2.60
2018-06-02T17:39:34.089Z,2.40
2018-06-02T17:42:03.621Z,3.00
2018-06-02T17:44:31.202Z,3.90
2018-06-02T17:46:58.778Z,2.97
2018-06-02T17:49:26.708Z,2.60
2018-06-02T17:51:54.340Z,2.40
2018-06-02T17:54:24.427Z,3.57
2018-06-02T17:56:54.854Z,2.77
2018-06-02T17:59:23.924Z,2.20
2018-06-02T18:01:51.510Z,2.10
2018-06-02T18:04:19.908Z,2.97
2018-06-02T18:06:49.844Z,2.63
2018-06-02T18:09:26.189Z,2.30
2018-06-02T18:11:58.372Z,1.97
2018-06-02T18:17:22.542Z,2.60
2018-06-02T18:19:50.079Z,3.27
2018-06-02T18:22:18.566Z,2.97
2018-06-02T18:24:46.249Z,2.40
2018-06-02T18:27:13.992Z,2.40
2018-06-02T18:29:44.180Z,2.30
2018-06-02T18:32:16.175Z,3.27
2018-06-02T18:34:50.510Z,2.00
2018-06-02T18:39:52.016Z,1.50
2018-06-02T18:42:19.670Z,1.70
2018-06-02T18:44:47.312Z,1.90
2018-06-02T18:47:18.673Z,1.97
2018-06-02T18:49:51.236Z,2.00
2018-06-02T18:54:53.943Z,1.60
2018-06-02T18:57:21.461Z,1.53
2018-06-02T18:59:49.013Z,1.70
2018-06-02T19:02:17.580Z,2.00
2018-06-02T19:13:42.859Z,1.73
2018-06-02T19:16:10.470Z,2.40
2018-06-02T19:18:38.097Z,2.10
2018-06-02T19:30:14.032Z,2.40
2018-06-02T19:32:41.599Z,2.30
2018-06-02T19:35:09.367Z,2.80
2018-06-02T19:46:45.495Z,2.40
2018-06-02T19:49:13.058Z,3.53
2018-06-02T19:51:40.615Z,3.30
2018-06-02T20:03:17.178Z,3.27
2018-06-02T20:05:44.735Z,3.60
2018-06-02T20:08:12.311Z,3.50
2018-06-02T20:19:48.177Z,3.63
2018-06-02T20:22:15.747Z,3.80
2018-06-02T20:24:43.318Z,3.90
2018-06-02T20:27:11.023Z,3.80
2018-06-02T20:38:47.754Z,3.73
2018-06-02T20:41:15.323Z,3.73
2018-06-02T20:43:42.859Z,3.77
2018-06-02T20:55:19.326Z,4.47
2018-06-02T20:57:46.968Z,3.70
2018-06-02T21:00:14.540Z,3.90
2018-06-02T21:11:50.767Z,6.37
2018-06-02T21:14:18.287Z,5.90
2018-06-02T21:16:45.936Z,5.20
2018-06-02T21:28:20.378Z,3.13
2018-06-02T21:30:47.947Z,3.10
2018-06-02T21:33:15.497Z,3.00
2018-06-02T21:35:43.128Z,3.27
2018-06-02T21:47:18.989Z,3.20
2018-06-02T21:49:46.570Z,3.30
2018-06-02T21:52:14.345Z,3.10
2018-06-02T22:03:51.295Z,3.37
2018-06-02T22:06:18.956Z,3.67
2018-06-02T22:08:46.518Z,3.67
2018-06-02T22:20:22.655Z,3.70
2018-06-02T22:22:50.221Z,4.10
2018-06-02T22:25:17.806Z,3.43
2018-06-02T22:36:48.103Z,5.60
2018-06-02T22:39:16.849Z,6.20
2018-06-02T22:41:44.544Z,4.80
2018-06-02T22:53:16.911Z,5.43
2018-06-02T22:55:44.507Z,4.90
2018-06-02T22:58:12.089Z,4.60
2018-06-02T23:00:39.650Z,5.13
2018-06-02T23:12:15.154Z,4.63
2018-06-02T23:14:42.736Z,3.83
2018-06-02T23:17:10.350Z,3.90
2018-06-02T23:28:45.672Z,4.63
2018-06-02T23:31:13.277Z,4.50
2018-06-02T23:33:40.855Z,4.40
2018-06-02T23:45:17.452Z,4.40
2018-06-02T23:47:44.999Z,4.70
2018-06-02T23:50:12.679Z,4.17
